Terminal Aerodrome Forecast
Issued by NWS Cleveland, OH

Home | Current Version | Previous Version | Graphics & Text | Print | Product List | Glossary On
Versions: 1 2 3 4 5 6 7 8 9 10 11 12 13 14 15 16 17 18
000
FTUS41 KCLE 240529
TAFCAK
TAF
KCAK 240529Z 2406/2506 VRB03KT P6SM BKN200
     FM240900 VRB03KT 5SM BR BKN200
      TEMPO 2410/2413 2SM BR FEW004
     FM241400 23008KT P6SM SCT040 BKN200
     FM250100 22005KT P6SM FEW120 BKN200=

USA.gov is the U.S. government's official web portal to all federal, state and local government web resources and services.